Time;durP1;ratioP1;P1;durP2;ratioP2;P2;SDS_P1;SDS_P2;PMS_P1;PMS_P2;Temp;Humidity;BMP_temperature;BMP_pressure;BME280_temperature;BME280_humidity;BME280_pressure;Samples;Min_cycle;Max_cycle;Signal;HPM_P1;HPM_P2
2022/01/20 00:04:00;;;;;;;10.20;5.93;;;;;4.30;96602.00;;;;8381008;28;20268;-79
2022/01/20 00:08:20;;;;;;;8.87;5.63;;;;;4.30;96604.00;;;;8381075;28;20265;-78
2022/01/20 00:34:16;;;;;;;10.57;4.53;;;;;4.10;96594.00;;;;8338788;28;20230;-79
2022/01/20 00:38:19;;;;;;;9.93;5.90;;;;;4.00;96599.00;;;;8380148;28;20318;-78
2022/01/20 00:42:24;;;;;;;10.30;6.10;;;;;3.90;96585.00;;;;8379064;28;20274;-77
2022/01/20 00:46:28;;;;;;;7.43;5.13;;;;;3.80;96595.00;;;;8378078;28;20225;-75
2022/01/20 00:50:32;;;;;;;9.40;5.57;;;;;3.60;96595.00;;;;8356658;28;20239;-75
2022/01/20 00:54:35;;;;;;;12.03;6.70;;;;;3.50;96592.00;;;;8377916;28;20349;-76
2022/01/20 00:58:41;;;;;;;8.70;5.20;;;;;3.40;96597.00;;;;8378818;28;20617;-76
2022/01/20 01:02:44;;;;;;;10.33;5.97;;;;;3.40;96605.00;;;;8381090;28;20332;-76
2022/01/20 01:11:13;;;;;;;10.63;6.37;;;;;3.40;96600.00;;;;8361773;28;20223;-77
2022/01/20 01:15:22;;;;;;;9.70;6.10;;;;;3.40;96596.00;;;;8377855;28;20340;-75
2022/01/20 01:23:46;;;;;;;16.60;7.00;;;;;3.30;96603.00;;;;8374933;28;20250;-77
2022/01/20 01:27:49;;;;;;;11.90;6.73;;;;;3.30;96610.00;;;;8382015;28;20229;-76
2022/01/20 01:31:54;;;;;;;16.03;7.20;;;;;3.30;96604.00;;;;8377517;28;20254;-77
2022/01/20 01:35:58;;;;;;;17.53;8.30;;;;;3.20;96611.00;;;;8373743;28;20224;-76
2022/01/20 01:40:04;;;;;;;14.37;7.37;;;;;3.20;96613.00;;;;8377940;28;20246;-77
2022/01/20 01:44:20;;;;;;;11.93;7.20;;;;;3.10;96616.00;;;;8373884;28;20965;-80
2022/01/20 01:48:24;;;;;;;14.73;7.13;;;;;3.10;96607.00;;;;8380573;28;20262;-79
2022/01/20 01:52:28;;;;;;;12.70;7.57;;;;;3.10;96608.00;;;;8386901;28;20269;-81
2022/01/20 01:56:31;;;;;;;17.03;7.93;;;;;3.10;96598.00;;;;8385556;28;20232;-82
2022/01/20 02:00:35;;;;;;;11.63;5.53;;;;;3.00;96590.00;;;;8385112;28;20537;-85
2022/01/20 02:04:39;;;;;;;16.73;7.67;;;;;2.90;96601.00;;;;8381750;28;20234;-87
2022/01/20 02:08:54;;;;;;;18.97;7.70;;;;;2.90;96605.00;;;;8385878;28;20261;-89
2022/01/20 02:21:54;;;;;;;14.03;7.13;;;;;3.00;96597.00;;;;8281866;28;20250;-80
2022/01/20 02:25:57;;;;;;;10.70;6.03;;;;;3.00;96581.00;;;;8385715;28;20249;-88
2022/01/20 02:30:01;;;;;;;15.17;6.77;;;;;2.90;96572.00;;;;8384887;28;20257;-83
2022/01/20 02:34:04;;;;;;;10.47;6.07;;;;;2.90;96567.00;;;;8379904;28;20269;-84
2022/01/20 02:38:13;;;;;;;11.13;5.80;;;;;2.90;96560.00;;;;8382107;28;20254;-81
2022/01/20 02:46:39;;;;;;;13.07;6.53;;;;;2.90;96571.00;;;;8384132;28;20376;-84
2022/01/20 02:50:43;;;;;;;8.93;5.10;;;;;2.90;96576.00;;;;8382861;28;20286;-83
2022/01/20 02:54:47;;;;;;;11.37;5.37;;;;;3.00;96578.00;;;;8387306;28;20314;-85
2022/01/20 02:58:54;;;;;;;9.50;5.13;;;;;3.00;96568.00;;;;8382091;28;20318;-84
2022/01/20 03:02:57;;;;;;;8.60;4.50;;;;;3.00;96561.00;;;;8441523;22;20336;-83
2022/01/20 03:07:00;;;;;;;8.13;5.07;;;;;3.00;96578.00;;;;8371864;28;20249;-82
2022/01/20 03:11:05;;;;;;;8.00;5.10;;;;;3.00;96575.00;;;;8371823;28;20246;-80
2022/01/20 03:15:09;;;;;;;7.63;4.50;;;;;3.00;96582.00;;;;8362158;28;20266;-84
2022/01/20 03:19:13;;;;;;;10.43;4.70;;;;;3.00;96589.00;;;;8371486;28;20241;-83
2022/01/20 03:23:16;;;;;;;7.97;4.43;;;;;3.00;96580.00;;;;8374492;28;20309;-84
2022/01/20 03:27:20;;;;;;;5.57;3.70;;;;;3.00;96586.00;;;;8374736;28;20844;-86
2022/01/20 03:31:24;;;;;;;7.33;3.87;;;;;3.00;96591.00;;;;8381022;28;20248;-83
2022/01/20 03:35:27;;;;;;;7.90;4.23;;;;;3.00;96589.00;;;;8371581;28;20257;-84
2022/01/20 03:39:30;;;;;;;5.93;4.03;;;;;3.00;96583.00;;;;8363076;28;20301;-82
2022/01/20 03:43:35;;;;;;;3.07;2.63;;;;;3.10;96563.00;;;;8378789;28;20318;-81
2022/01/20 03:47:39;;;;;;;7.57;4.10;;;;;3.10;96568.00;;;;8374599;28;20234;-80
2022/01/20 03:51:42;;;;;;;7.53;3.97;;;;;3.10;96581.00;;;;8365587;28;20222;-80
2022/01/20 03:55:45;;;;;;;8.17;4.10;;;;;3.10;96572.00;;;;8382931;28;20258;-81
2022/01/20 03:59:50;;;;;;;9.03;4.63;;;;;3.10;96574.00;;;;8374960;28;20261;-79
2022/01/20 04:03:53;;;;;;;6.90;3.40;;;;;3.10;96574.00;;;;8361114;28;20357;-80
2022/01/20 04:07:56;;;;;;;6.83;4.53;;;;;3.20;96583.00;;;;8362568;28;20260;-79
2022/01/20 04:12:00;;;;;;;5.40;3.50;;;;;3.20;96568.00;;;;8356519;28;20254;-78
2022/01/20 04:16:13;;;;;;;9.13;4.80;;;;;3.30;96573.00;;;;8358439;28;20227;-79
2022/01/20 04:20:16;;;;;;;7.90;4.40;;;;;3.20;96558.00;;;;8366493;28;20243;-81
2022/01/20 04:24:19;;;;;;;6.13;3.70;;;;;3.20;96551.00;;;;8363631;28;20227;-81
2022/01/20 04:28:23;;;;;;;5.53;3.80;;;;;3.20;96549.00;;;;8358928;28;20258;-79
2022/01/20 04:32:28;;;;;;;6.10;4.07;;;;;3.30;96548.00;;;;8361403;28;20251;-79
2022/01/20 04:36:33;;;;;;;5.30;3.70;;;;;3.30;96558.00;;;;8358872;28;20255;-79
2022/01/20 04:40:41;;;;;;;6.40;4.27;;;;;3.30;96556.00;;;;8370919;28;20314;-79
2022/01/20 04:44:49;;;;;;;5.63;3.60;;;;;3.30;96550.00;;;;8374026;28;20906;-81
2022/01/20 04:49:12;;;;;;;4.27;3.37;;;;;3.20;96544.00;;;;8368761;28;20230;-79
2022/01/20 04:57:36;;;;;;;6.20;3.93;;;;;3.30;96543.00;;;;8352909;28;20675;-81
2022/01/20 05:01:44;;;;;;;8.00;4.20;;;;;3.30;96548.00;;;;8378274;28;20253;-79
2022/01/20 05:05:51;;;;;;;7.00;4.00;;;;;3.30;96543.00;;;;8368180;28;20583;-79
2022/01/20 05:09:56;;;;;;;6.47;3.93;;;;;3.30;96548.00;;;;8356383;28;20752;-76
2022/01/20 05:13:59;;;;;;;5.83;3.97;;;;;3.30;96536.00;;;;8347305;28;20273;-78
2022/01/20 05:18:03;;;;;;;6.03;3.57;;;;;3.30;96550.00;;;;8347156;28;20314;-77
2022/01/20 05:22:07;;;;;;;5.63;4.00;;;;;3.30;96549.00;;;;8366397;28;20279;-76
2022/01/20 05:26:11;;;;;;;7.53;4.63;;;;;3.30;96543.00;;;;8345926;28;20609;-76
2022/01/20 05:30:14;;;;;;;6.10;4.00;;;;;3.30;96542.00;;;;8349113;28;20310;-78
2022/01/20 05:34:18;;;;;;;4.93;3.70;;;;;3.30;96532.00;;;;8359026;28;20250;-77
2022/01/20 05:38:22;;;;;;;5.83;4.03;;;;;3.30;96529.00;;;;8370362;28;20313;-78
2022/01/20 05:42:26;;;;;;;9.47;4.33;;;;;3.40;96531.00;;;;8368271;28;20319;-78
2022/01/20 05:46:35;;;;;;;8.17;4.30;;;;;3.40;96531.00;;;;8356444;28;20291;-78
2022/01/20 05:50:39;;;;;;;9.97;4.27;;;;;3.40;96529.00;;;;8364356;28;20223;-78
2022/01/20 05:54:44;;;;;;;11.00;4.10;;;;;3.40;96541.00;;;;8363424;28;20309;-78
2022/01/20 05:58:47;;;;;;;9.03;4.20;;;;;3.40;96526.00;;;;8370480;28;20245;-77
2022/01/20 06:07:11;;;;;;;21.37;14.53;;;;;3.40;96536.00;;;;8365379;28;20334;-78
2022/01/20 06:11:16;;;;;;;30.60;17.40;;;;;3.40;96537.00;;;;8355348;28;20317;-78
2022/01/20 06:15:19;;;;;;;9.90;5.63;;;;;3.40;96539.00;;;;8363844;28;20277;-78
2022/01/20 06:19:24;;;;;;;62.93;30.07;;;;;3.40;96531.00;;;;8354576;28;20342;-79
2022/01/20 06:23:27;;;;;;;31.00;14.50;;;;;3.50;96533.00;;;;8355339;28;20280;-77
2022/01/20 06:27:32;;;;;;;11.70;6.13;;;;;3.50;96525.00;;;;8355033;28;20344;-77
2022/01/20 06:31:35;;;;;;;27.37;14.97;;;;;3.50;96522.00;;;;8348784;28;20234;-76
2022/01/20 06:35:39;;;;;;;13.73;5.87;;;;;3.50;96508.00;;;;8368915;28;20312;-77
2022/01/20 06:39:42;;;;;;;14.13;5.90;;;;;3.60;96507.00;;;;8367308;28;20303;-77
2022/01/20 06:43:46;;;;;;;15.80;6.37;;;;;3.50;96511.00;;;;8375973;28;20227;-77
2022/01/20 06:47:50;;;;;;;12.27;7.20;;;;;3.60;96510.00;;;;8374294;28;21731;-77
2022/01/20 06:51:53;;;;;;;20.80;9.83;;;;;3.60;96519.00;;;;8376797;28;20223;-77
2022/01/20 06:55:57;;;;;;;17.93;8.47;;;;;3.60;96535.00;;;;8380721;28;20770;-76
2022/01/20 07:00:03;;;;;;;17.17;7.17;;;;;3.60;96527.00;;;;8375137;28;20933;-76
2022/01/20 07:04:08;;;;;;;18.27;6.63;;;;;3.60;96524.00;;;;8377985;28;20321;-75
2022/01/20 07:08:12;;;;;;;15.83;6.47;;;;;3.60;96551.00;;;;8378349;28;21823;-78
2022/01/20 07:12:15;;;;;;;6.67;4.53;;;;;3.60;96563.00;;;;8374605;28;20250;-75
2022/01/20 07:16:19;;;;;;;14.33;7.20;;;;;3.60;96555.00;;;;8369647;28;20736;-77
2022/01/20 07:20:23;;;;;;;16.90;7.77;;;;;3.60;96565.00;;;;8376692;28;20885;-77
2022/01/20 07:24:27;;;;;;;16.03;7.37;;;;;3.60;96572.00;;;;8383110;28;20248;-77
2022/01/20 07:28:42;;;;;;;14.27;5.83;;;;;3.60;96569.00;;;;8366048;28;20787;-76
2022/01/20 07:32:48;;;;;;;10.70;5.93;;;;;3.60;96560.00;;;;8365747;28;20280;-76
2022/01/20 07:36:52;;;;;;;23.83;10.27;;;;;3.60;96573.00;;;;8359463;28;20317;-78
2022/01/20 07:40:56;;;;;;;12.47;6.33;;;;;3.70;96583.00;;;;8366264;28;20258;-76
2022/01/20 07:44:59;;;;;;;13.67;5.83;;;;;3.70;96578.00;;;;8367148;28;20223;-77
2022/01/20 07:49:04;;;;;;;14.67;6.57;;;;;3.70;96604.00;;;;8394025;28;20249;-80
2022/01/20 07:53:08;;;;;;;13.27;5.73;;;;;3.60;96588.00;;;;8364754;28;20234;-77
2022/01/20 07:57:12;;;;;;;14.07;6.43;;;;;3.60;96570.00;;;;8371690;28;20235;-75
2022/01/20 08:01:16;;;;;;;26.53;7.50;;;;;3.60;96598.00;;;;8370128;28;20237;-74
2022/01/20 08:05:21;;;;;;;9.60;4.80;;;;;3.60;96615.00;;;;8376464;28;20243;-76
2022/01/20 08:09:24;;;;;;;13.00;5.23;;;;;3.70;96618.00;;;;8379435;28;20250;-76
2022/01/20 08:13:48;;;;;;;15.03;6.03;;;;;3.80;96616.00;;;;8370707;28;20255;-78
2022/01/20 08:17:51;;;;;;;15.97;7.03;;;;;3.90;96620.00;;;;8373486;28;20251;-76
2022/01/20 08:21:56;;;;;;;17.40;6.77;;;;;4.00;96627.00;;;;8367207;28;20319;-76
2022/01/20 08:25:59;;;;;;;11.10;5.37;;;;;4.10;96623.00;;;;8369964;28;20317;-76
2022/01/20 08:30:04;;;;;;;13.30;6.23;;;;;4.10;96605.00;;;;8362736;28;20224;-77
2022/01/20 08:34:07;;;;;;;12.67;6.17;;;;;4.20;96617.00;;;;8373833;28;20223;-77
2022/01/20 08:38:13;;;;;;;17.83;6.27;;;;;4.10;96597.00;;;;8368527;28;20232;-77
2022/01/20 08:42:18;;;;;;;14.53;5.20;;;;;4.20;96599.00;;;;8369373;28;20222;-79
2022/01/20 08:46:25;;;;;;;10.27;4.50;;;;;4.10;96606.00;;;;8348444;28;20593;-78
2022/01/20 08:50:32;;;;;;;15.03;6.70;;;;;4.10;96607.00;;;;8361345;28;20761;-78
2022/01/20 08:54:37;;;;;;;11.27;5.10;;;;;4.10;96616.00;;;;8362539;28;20266;-78
2022/01/20 08:58:41;;;;;;;15.40;6.73;;;;;4.00;96640.00;;;;8366464;28;20236;-78
2022/01/20 09:02:44;;;;;;;18.40;8.53;;;;;4.00;96636.00;;;;8359000;28;20265;-78
2022/01/20 09:06:48;;;;;;;14.00;6.87;;;;;4.00;96614.00;;;;8378417;28;20583;-79
2022/01/20 09:10:55;;;;;;;10.40;5.77;;;;;4.00;96625.00;;;;8352686;28;20262;-77
2022/01/20 09:19:19;;;;;;;13.60;6.53;;;;;4.10;96603.00;;;;8375172;28;20850;-78
2022/01/20 09:23:22;;;;;;;26.97;16.70;;;;;4.20;96604.00;;;;8356662;28;20227;-77
2022/01/20 09:27:27;;;;;;;18.23;7.70;;;;;4.30;96605.00;;;;8367391;28;20227;-78
2022/01/20 09:31:36;;;;;;;32.30;14.80;;;;;4.10;96622.00;;;;8370684;28;20323;-80
2022/01/20 09:35:41;;;;;;;8.50;4.87;;;;;3.80;96624.00;;;;8368962;28;20246;-80
2022/01/20 09:39:45;;;;;;;10.20;5.27;;;;;3.80;96620.00;;;;8352259;28;20755;-79
2022/01/20 09:43:52;;;;;;;14.27;7.73;;;;;3.80;96616.00;;;;8360135;28;21252;-80
2022/01/20 09:47:56;;;;;;;24.23;15.17;;;;;3.80;96606.00;;;;8374059;28;20227;-79
2022/01/20 09:51:59;;;;;;;12.03;7.03;;;;;3.80;96602.00;;;;8369757;28;20261;-78
2022/01/20 09:56:02;;;;;;;11.83;5.20;;;;;3.80;96621.00;;;;8368656;28;20262;-80
2022/01/20 10:00:16;;;;;;;15.87;5.27;;;;;3.80;96623.00;;;;8368175;28;20230;-80
2022/01/20 10:04:21;;;;;;;11.77;5.03;;;;;3.80;96617.00;;;;8378719;28;20226;-79
2022/01/20 10:08:26;;;;;;;22.17;10.23;;;;;3.90;96630.00;;;;8365601;28;20238;-84
2022/01/20 10:12:31;;;;;;;15.47;5.67;;;;;3.80;96626.00;;;;8374128;28;20266;-80
2022/01/20 10:16:36;;;;;;;13.13;5.57;;;;;3.80;96621.00;;;;8384054;28;20306;-79
2022/01/20 10:20:52;;;;;;;7.93;4.13;;;;;3.80;96626.00;;;;8383256;28;20306;-81
2022/01/20 10:25:02;;;;;;;8.73;3.60;;;;;3.80;96630.00;;;;8384586;28;20219;-83
2022/01/20 10:29:08;;;;;;;14.80;5.07;;;;;4.00;96628.00;;;;8358971;28;20236;-82
2022/01/20 10:33:18;;;;;;;12.73;6.47;;;;;4.10;96624.00;;;;8365411;28;20226;-79
2022/01/20 10:37:26;;;;;;;9.43;4.80;;;;;4.20;96619.00;;;;8365504;28;20254;-84
2022/01/20 10:41:31;;;;;;;14.07;5.37;;;;;4.30;96634.00;;;;8364313;28;20224;-83
2022/01/20 10:45:35;;;;;;;14.70;9.93;;;;;4.30;96611.00;;;;8363413;28;20986;-80
2022/01/20 10:49:42;;;;;;;8.77;4.13;;;;;4.50;96611.00;;;;8364557;28;20243;-82
2022/01/20 10:53:59;;;;;;;7.20;4.00;;;;;4.60;96599.00;;;;8359447;28;20302;-87
2022/01/20 10:58:11;;;;;;;7.97;3.80;;;;;4.60;96585.00;;;;8370879;28;20255;-80
2022/01/20 11:02:14;;;;;;;9.77;4.07;;;;;4.50;96570.00;;;;8363396;28;20234;-83
2022/01/20 11:06:19;;;;;;;10.10;4.30;;;;;4.40;96575.00;;;;8364161;28;20232;-82
2022/01/20 11:10:25;;;;;;;10.97;4.47;;;;;4.40;96576.00;;;;8355479;28;20235;-77
2022/01/20 11:14:30;;;;;;;11.63;4.60;;;;;4.40;96576.00;;;;8361250;28;20342;-81
2022/01/20 11:18:34;;;;;;;8.07;3.70;;;;;4.30;96542.00;;;;8364007;28;20314;-78
2022/01/20 11:22:52;;;;;;;9.63;4.30;;;;;4.30;96550.00;;;;8368306;28;20608;-81
2022/01/20 11:26:57;;;;;;;13.97;5.20;;;;;4.20;96550.00;;;;8377585;28;20258;-81
2022/01/20 11:31:04;;;;;;;10.17;3.77;;;;;4.10;96557.00;;;;8375402;28;20223;-79
2022/01/20 11:35:13;;;;;;;10.80;4.43;;;;;4.00;96556.00;;;;8355189;28;20705;-79
2022/01/20 11:39:25;;;;;;;8.20;3.93;;;;;3.90;96551.00;;;;8359005;28;20614;-74
2022/01/20 11:43:40;;;;;;;4.50;2.33;;;;;3.80;96550.00;;;;8360838;28;20279;-74
2022/01/20 11:47:45;;;;;;;14.97;3.97;;;;;3.80;96540.00;;;;8359136;28;20251;-79
2022/01/20 11:51:51;;;;;;;4.80;2.90;;;;;4.00;96552.00;;;;8361046;28;20593;-75
2022/01/20 11:56:06;;;;;;;6.73;3.10;;;;;4.20;96548.00;;;;8360139;28;20676;-77
2022/01/20 12:00:26;;;;;;;9.47;2.30;;;;;3.90;96613.00;;;;8328227;28;21007;-73
2022/01/20 12:04:40;;;;;;;4.57;1.50;;;;;2.90;96601.00;;;;8347387;28;20233;-71
2022/01/20 12:08:53;;;;;;;4.37;1.00;;;;;2.50;96597.00;;;;8368654;28;20586;-73
2022/01/20 12:13:10;;;;;;;3.37;1.13;;;;;2.20;96591.00;;;;8360832;28;20247;-72
2022/01/20 12:17:16;;;;;;;3.57;1.10;;;;;2.10;96576.00;;;;8358471;28;20220;-74
2022/01/20 12:21:21;;;;;;;12.00;1.37;;;;;2.20;96594.00;;;;8368262;28;20317;-73
2022/01/20 12:25:26;;;;;;;5.50;0.80;;;;;2.20;96593.00;;;;8363491;28;20221;-73
2022/01/20 12:29:40;;;;;;;4.43;1.03;;;;;2.30;96592.00;;;;8365889;28;20345;-73
2022/01/20 12:33:54;;;;;;;2.93;0.97;;;;;2.40;96598.00;;;;8334798;28;20237;-72
2022/01/20 12:38:02;;;;;;;9.43;1.00;;;;;2.40;96599.00;;;;8345935;28;20224;-73
2022/01/20 12:42:14;;;;;;;1.80;0.90;;;;;2.50;96601.00;;;;8345962;28;20591;-74
2022/01/20 12:46:28;;;;;;;6.43;1.10;;;;;2.50;96591.00;;;;8350679;28;20235;-71
2022/01/20 12:50:41;;;;;;;2.40;0.90;;;;;2.40;96598.00;;;;8358780;28;20521;-72
2022/01/20 12:54:52;;;;;;;8.17;1.47;;;;;2.40;96584.00;;;;8362965;28;20222;-72
2022/01/20 12:59:00;;;;;;;2.60;0.93;;;;;2.40;96581.00;;;;8356711;28;20261;-70
2022/01/20 13:03:13;;;;;;;3.57;0.90;;;;;2.40;96590.00;;;;8353096;28;20257;-72
2022/01/20 13:07:18;;;;;;;2.97;1.00;;;;;2.40;96594.00;;;;8363396;28;20239;-69
2022/01/20 13:11:34;;;;;;;4.33;0.93;;;;;2.40;96601.00;;;;8347092;28;20310;-71
2022/01/20 13:15:40;;;;;;;6.27;1.27;;;;;2.40;96593.00;;;;8365523;28;20286;-72
2022/01/20 13:19:47;;;;;;;6.73;0.87;;;;;2.50;96581.00;;;;8361057;28;21157;-72
2022/01/20 13:23:57;;;;;;;4.93;1.53;;;;;2.50;96595.00;;;;8367485;28;20233;-71
2022/01/20 13:28:02;;;;;;;3.87;1.10;;;;;2.60;96605.00;;;;8363444;28;20319;-71
2022/01/20 13:32:06;;;;;;;6.27;1.63;;;;;2.50;96610.00;;;;8356592;28;20726;-71
2022/01/20 13:36:11;;;;;;;16.57;1.73;;;;;2.40;96617.00;;;;8367196;28;20317;-71
2022/01/20 13:40:22;;;;;;;8.97;1.40;;;;;2.50;96620.00;;;;8363809;28;20253;-72
2022/01/20 13:48:46;;;;;;;6.13;1.80;;;;;2.60;96627.00;;;;8370868;28;20645;-74
2022/01/20 13:52:51;;;;;;;10.27;1.93;;;;;2.50;96635.00;;;;8371008;28;20229;-75
2022/01/20 13:56:55;;;;;;;11.77;2.13;;;;;2.40;96638.00;;;;8347191;28;20254;-75
2022/01/20 14:00:59;;;;;;;9.33;2.40;;;;;2.40;96635.00;;;;8355697;28;20229;-73
2022/01/20 14:05:03;;;;;;;7.30;2.30;;;;;2.50;96625.00;;;;8352090;28;20235;-73
2022/01/20 14:09:08;;;;;;;3.63;1.83;;;;;2.50;96648.00;;;;8377814;28;20682;-76
2022/01/20 14:13:11;;;;;;;12.10;2.20;;;;;2.50;96650.00;;;;8360828;28;20305;-77
2022/01/20 14:17:19;;;;;;;15.97;2.03;;;;;2.50;96644.00;;;;8358987;28;20723;-80
2022/01/20 14:21:22;;;;;;;4.83;1.80;;;;;2.50;96650.00;;;;8357699;28;20221;-75
2022/01/20 14:25:32;;;;;;;7.00;2.00;;;;;2.60;96664.00;;;;8353982;28;20222;-78
2022/01/20 14:29:36;;;;;;;4.67;1.60;;;;;2.60;96670.00;;;;8360659;28;20259;-77
2022/01/20 14:33:39;;;;;;;7.27;2.20;;;;;2.60;96672.00;;;;8355964;28;20227;-78
2022/01/20 14:37:42;;;;;;;14.93;1.97;;;;;2.50;96678.00;;;;8358598;28;20256;-77
2022/01/20 14:41:47;;;;;;;11.30;2.20;;;;;2.40;96686.00;;;;8357733;28;20683;-76
2022/01/20 14:45:51;;;;;;;21.83;4.43;;;;;2.50;96677.00;;;;8351928;28;20254;-80
2022/01/20 14:49:55;;;;;;;14.63;1.90;;;;;2.60;96682.00;;;;8364107;28;20801;-78
2022/01/20 14:53:58;;;;;;;16.63;2.40;;;;;2.60;96682.00;;;;8355153;28;20234;-78
2022/01/20 14:58:03;;;;;;;12.17;2.13;;;;;2.60;96696.00;;;;8364044;28;20241;-82
2022/01/20 15:02:06;;;;;;;20.63;2.10;;;;;2.60;96692.00;;;;8363000;28;20301;-81
2022/01/20 15:06:10;;;;;;;11.30;2.03;;;;;2.50;96702.00;;;;8366454;28;20227;-84
2022/01/20 15:10:15;;;;;;;11.90;1.83;;;;;2.40;96700.00;;;;8360465;28;20253;-81
2022/01/20 15:14:20;;;;;;;5.40;1.17;;;;;2.30;96719.00;;;;8357505;28;20220;-80
2022/01/20 15:18:23;;;;;;;7.13;1.73;;;;;2.20;96717.00;;;;8351357;28;20823;-77
2022/01/20 15:22:32;;;;;;;5.17;1.37;;;;;2.10;96718.00;;;;8359691;28;20263;-78
2022/01/20 15:26:36;;;;;;;9.23;1.73;;;;;2.00;96726.00;;;;8361182;28;20237;-78
2022/01/20 15:30:40;;;;;;;7.73;1.50;;;;;1.90;96727.00;;;;8363425;28;20230;-79
2022/01/20 15:34:44;;;;;;;12.83;1.80;;;;;1.90;96734.00;;;;8365094;28;20698;-81
2022/01/20 15:38:48;;;;;;;11.53;1.33;;;;;1.90;96717.00;;;;8362161;28;20801;-82
2022/01/20 15:42:51;;;;;;;10.93;2.50;;;;;1.80;96717.00;;;;8359595;28;20250;-80
2022/01/20 15:46:56;;;;;;;9.37;1.67;;;;;1.80;96725.00;;;;8358930;28;20683;-78
2022/01/20 15:50:59;;;;;;;5.83;2.33;;;;;1.80;96720.00;;;;8361589;28;20322;-78
2022/01/20 15:55:02;;;;;;;6.03;1.37;;;;;1.80;96708.00;;;;8364742;28;20585;-77
2022/01/20 15:59:06;;;;;;;37.37;17.97;;;;;1.80;96716.00;;;;8362140;28;20222;-77
2022/01/20 16:03:11;;;;;;;7.20;2.07;;;;;1.90;96720.00;;;;8367338;28;20252;-75
2022/01/20 16:07:14;;;;;;;55.57;24.93;;;;;1.90;96731.00;;;;8361673;28;20225;-75
2022/01/20 16:11:17;;;;;;;11.90;4.40;;;;;1.90;96740.00;;;;8369815;28;20748;-77
2022/01/20 16:15:21;;;;;;;20.10;4.83;;;;;1.70;96734.00;;;;8343579;28;20263;-77
2022/01/20 16:19:25;;;;;;;9.67;3.70;;;;;1.60;96747.00;;;;8369532;28;20654;-77
2022/01/20 16:23:29;;;;;;;12.47;3.87;;;;;1.50;96740.00;;;;8367851;28;20226;-77
2022/01/20 16:27:33;;;;;;;18.80;12.73;;;;;1.40;96744.00;;;;8354567;28;20253;-78
2022/01/20 16:31:37;;;;;;;7.03;1.97;;;;;1.30;96745.00;;;;8367996;28;20276;-79
2022/01/20 16:35:42;;;;;;;16.60;3.43;;;;;1.20;96746.00;;;;8375708;28;20355;-79
2022/01/20 16:39:46;;;;;;;13.40;1.80;;;;;1.20;96754.00;;;;8371588;28;20221;-77
2022/01/20 16:43:50;;;;;;;7.50;2.73;;;;;1.10;96757.00;;;;8373295;28;20224;-78
2022/01/20 16:47:54;;;;;;;19.73;11.37;;;;;1.10;96770.00;;;;8367074;28;20530;-79
2022/01/20 16:51:58;;;;;;;11.63;3.07;;;;;1.10;96773.00;;;;8357249;28;20303;-79
2022/01/20 16:56:01;;;;;;;15.70;7.80;;;;;1.00;96785.00;;;;8365027;28;20256;-78
2022/01/20 17:00:08;;;;;;;14.77;6.63;;;;;1.00;96795.00;;;;8371784;28;20225;-78
2022/01/20 17:04:11;;;;;;;10.00;2.20;;;;;1.10;96796.00;;;;8357009;28;20645;-77
2022/01/20 17:08:27;;;;;;;13.07;2.40;;;;;1.10;96786.00;;;;8343622;28;20296;-78
2022/01/20 17:12:38;;;;;;;8.70;1.87;;;;;1.10;96794.00;;;;8304168;28;20264;-76
2022/01/20 17:16:42;;;;;;;6.20;1.73;;;;;1.30;96772.00;;;;8348032;28;20316;-79
2022/01/20 17:20:47;;;;;;;11.40;2.20;;;;;1.40;96787.00;;;;8348829;28;20252;-76
2022/01/20 17:24:52;;;;;;;10.30;2.10;;;;;1.40;96778.00;;;;8352564;28;20229;-76
2022/01/20 17:28:55;;;;;;;3.47;1.73;;;;;1.50;96776.00;;;;8368783;28;20229;-76
2022/01/20 17:32:58;;;;;;;7.60;2.17;;;;;1.50;96794.00;;;;8350124;28;20304;-79
2022/01/20 17:37:01;;;;;;;10.27;2.20;;;;;1.60;96804.00;;;;8358866;28;20312;-76
2022/01/20 17:41:06;;;;;;;6.57;2.10;;;;;1.60;96782.00;;;;8363245;28;20332;-75
2022/01/20 17:45:11;;;;;;;6.43;1.70;;;;;1.60;96788.00;;;;8357620;28;20315;-74
2022/01/20 17:49:14;;;;;;;10.63;1.83;;;;;1.60;96775.00;;;;8340755;28;20778;-75
2022/01/20 17:53:21;;;;;;;3.17;1.63;;;;;1.50;96793.00;;;;8355008;28;20253;-76
2022/01/20 17:57:26;;;;;;;14.20;2.10;;;;;1.40;96798.00;;;;8357779;28;20228;-76
2022/01/20 18:01:30;;;;;;;5.70;1.37;;;;;1.40;96800.00;;;;8357600;28;20222;-78
2022/01/20 18:05:34;;;;;;;4.67;1.80;;;;;1.30;96800.00;;;;8358297;28;20307;-79
2022/01/20 18:09:38;;;;;;;5.50;1.40;;;;;1.20;96787.00;;;;8352422;28;20311;-76
2022/01/20 18:13:42;;;;;;;6.93;2.20;;;;;1.20;96787.00;;;;8360363;28;20255;-74
2022/01/20 18:17:46;;;;;;;9.20;2.17;;;;;1.20;96773.00;;;;8353597;28;20303;-76
2022/01/20 18:21:49;;;;;;;13.53;1.90;;;;;1.20;96786.00;;;;8357457;28;20310;-73
2022/01/20 18:25:52;;;;;;;11.97;2.23;;;;;1.20;96785.00;;;;8341884;28;20309;-73
2022/01/20 18:29:57;;;;;;;7.70;1.63;;;;;1.20;96778.00;;;;8344698;28;20347;-74
2022/01/20 18:34:00;;;;;;;15.90;2.37;;;;;1.20;96800.00;;;;8356114;28;20892;-73
2022/01/20 18:38:04;;;;;;;8.23;2.30;;;;;1.30;96790.00;;;;8359618;28;20692;-73
2022/01/20 18:42:07;;;;;;;9.47;1.87;;;;;1.30;96795.00;;;;8367000;28;20257;-72
2022/01/20 18:46:12;;;;;;;14.63;2.33;;;;;1.40;96794.00;;;;8378529;28;20725;-72
2022/01/20 18:50:21;;;;;;;7.00;1.80;;;;;1.40;96797.00;;;;8375250;28;20626;-73
2022/01/20 18:54:24;;;;;;;9.80;1.93;;;;;1.40;96808.00;;;;8366175;28;20325;-73
2022/01/20 18:58:28;;;;;;;10.20;1.80;;;;;1.50;96807.00;;;;8363283;28;20585;-74
2022/01/20 19:02:33;;;;;;;4.53;2.10;;;;;1.50;96814.00;;;;8371942;28;20272;-73
2022/01/20 19:06:36;;;;;;;4.60;1.70;;;;;1.50;96809.00;;;;8366409;28;20235;-72
2022/01/20 19:10:39;;;;;;;12.73;2.20;;;;;1.60;96814.00;;;;8376971;28;20237;-73
2022/01/20 19:14:42;;;;;;;11.70;2.00;;;;;1.60;96808.00;;;;8367879;28;20301;-73
2022/01/20 19:18:47;;;;;;;7.53;2.13;;;;;1.60;96806.00;;;;8373830;28;20336;-73
2022/01/20 19:22:50;;;;;;;7.23;2.10;;;;;1.60;96820.00;;;;8379071;28;20275;-73
2022/01/20 19:26:58;;;;;;;5.57;2.20;;;;;1.60;96837.00;;;;8365702;28;20636;-72
2022/01/20 19:31:01;;;;;;;9.20;2.20;;;;;1.60;96835.00;;;;8368169;28;20224;-72
2022/01/20 19:35:06;;;;;;;12.90;2.17;;;;;1.60;96839.00;;;;8371038;28;20911;-73
2022/01/20 19:39:10;;;;;;;10.73;2.70;;;;;1.60;96823.00;;;;8360578;28;20229;-72
2022/01/20 19:43:13;;;;;;;14.90;2.47;;;;;1.70;96815.00;;;;8367344;28;20277;-73
2022/01/20 19:48:06;;;;;;;9.23;2.00;;;;;1.70;96824.00;;;;8365313;28;20280;-73
2022/01/20 19:52:10;;;;;;;4.17;2.03;;;;;1.60;96812.00;;;;8367608;28;20250;-73
2022/01/20 19:56:13;;;;;;;5.63;2.20;;;;;1.60;96832.00;;;;8365641;28;20235;-73
2022/01/20 20:00:20;;;;;;;8.43;2.37;;;;;1.60;96830.00;;;;8368449;28;20220;-72
2022/01/20 20:04:26;;;;;;;12.90;2.67;;;;;1.60;96828.00;;;;8364430;28;20258;-73
2022/01/20 20:08:31;;;;;;;7.23;2.63;;;;;1.70;96830.00;;;;8368519;28;20235;-73
2022/01/20 20:12:34;;;;;;;4.67;2.23;;;;;1.70;96847.00;;;;8364236;28;20231;-73
2022/01/20 20:16:37;;;;;;;14.63;2.40;;;;;1.70;96847.00;;;;8365728;28;20299;-72
2022/01/20 20:20:40;;;;;;;8.80;2.57;;;;;1.70;96812.00;;;;8366238;28;20288;-72
2022/01/20 20:24:44;;;;;;;8.80;1.97;;;;;1.80;96828.00;;;;8370371;28;20630;-72
2022/01/20 20:29:05;;;;;;;7.33;2.13;;;;;1.70;96810.00;;;;8367912;28;20277;-71
2022/01/20 20:33:08;;;;;;;11.40;2.67;;;;;1.70;96809.00;;;;8369316;28;20224;-72
2022/01/20 20:37:13;;;;;;;10.87;2.03;;;;;1.80;96824.00;;;;8363127;28;20287;-72
2022/01/20 20:41:18;;;;;;;5.57;2.33;;;;;1.80;96817.00;;;;8357103;28;20239;-71
2022/01/20 20:45:22;;;;;;;5.30;1.83;;;;;1.80;96809.00;;;;8365180;28;20233;-72
2022/01/20 20:49:29;;;;;;;9.10;1.87;;;;;1.80;96813.00;;;;8358782;28;20231;-72
2022/01/20 20:53:32;;;;;;;9.23;2.83;;;;;1.80;96824.00;;;;8361564;28;20738;-71
2022/01/20 20:57:37;;;;;;;3.47;2.40;;;;;1.80;96838.00;;;;8364490;28;20251;-71
2022/01/20 21:01:41;;;;;;;13.40;3.57;;;;;1.80;96847.00;;;;8368105;28;20225;-73
2022/01/20 21:05:44;;;;;;;8.53;2.80;;;;;1.80;96859.00;;;;8358666;28;20738;-71
2022/01/20 21:09:47;;;;;;;12.93;3.77;;;;;1.80;96853.00;;;;8365000;28;20674;-72
2022/01/20 21:13:51;;;;;;;6.60;2.67;;;;;1.90;96856.00;;;;8367350;28;20701;-72
2022/01/20 21:17:54;;;;;;;13.70;3.40;;;;;1.90;96859.00;;;;8370259;28;20228;-72
2022/01/20 21:21:57;;;;;;;17.87;4.33;;;;;1.90;96875.00;;;;8359351;28;20315;-72
2022/01/20 21:26:01;;;;;;;12.03;3.27;;;;;1.90;96890.00;;;;8347282;28;20243;-73
2022/01/20 21:30:08;;;;;;;10.70;3.60;;;;;1.90;96880.00;;;;8345408;28;20275;-70
2022/01/20 21:34:14;;;;;;;13.53;3.87;;;;;1.90;96889.00;;;;8331032;28;20222;-70
2022/01/20 21:38:17;;;;;;;7.90;3.00;;;;;1.90;96887.00;;;;8363041;28;20233;-71